Nelma, Wisconsin
Current Conditions -  °F | °C
As of 6:35 PM on Monday 22 Dec 2014 (Local Time) from KEGV Reporting Station
Haze Haze  
Wind Chill: 24°   Ceiling: 800
Heat Index: 32°   Visibility: 5mi
Dew Point: 31°   Wind: 9mph
Humidity: 96%   Direction: 120°ESE
Pressure: 29.76"   Gusts: NA
Location:  45.9186°N, 88.7601°W
Report Text: KEGV 230035Z AUTO 12008KT 5SM BR OVC008 00/M01 A2976 RMK AO2 T00001006
Loading
Personal Weather Stations






























Interactive Weather Map New forecast layout! Learn more

10-Day Weather Forecast

Advertisements
Track Severe Weather on mobile